ENSG/SOG METAR and TAF weather

Enter ICAO airport designator
Station Type Date Time Source
ENSG METAR 2020/11/27 14:50 UTC NOAA

ENSG 271450Z VRB02KT 9999 FEW/// FEW005 BKN023 M02/M02 Q1021 RMK WIND 3806FT 10006KT


Station Type Date Time Source
ENSG Decoded METAR 2020/11/27 14:50 UTC NOAA

Sogndal / Haukasen, Norway (ENSG) 61-09N 007-08E 497M
Nov 27, 2020 - 09:50 AM EST / 2020.11.27 1450 UTC
Wind: Variable at 2 MPH (2 KT):0
Visibility: greater than 7 mile(s):0
Sky conditions: mostly cloudy
Temperature: 28 F (-2 C)
Dew Point: 28 F (-2 C)
Relative Humidity: 100%
Pressure (altimeter): 30.15 in. Hg (1021 hPa)
ob: ENSG 271450Z VRB02KT 9999 FEW/// FEW005 BKN023 M02/M02 Q1021 RMK WIND 3806FT 10006KT
cycle: 15

Station Type Date Time Source
ENSG TAF UTC NOAA

Error!

Example: see airport list